Time;durP1;ratioP1;P1;durP2;ratioP2;P2;SDS_P1;SDS_P2;PMS_P1;PMS_P2;Temp;Humidity;BMP_temperature;BMP_pressure;BME280_temperature;BME280_humidity;BME280_pressure;Samples;Min_cycle;Max_cycle;Signal;HPM_P1;HPM_P2
2023/09/15 00:00:06;;;;;;;5.38;2.90;;;14.80;99.90;;;;;;5031756;28;20081;-53
2023/09/15 00:02:35;;;;;;;5.22;2.80;;;14.80;99.90;;;;;;5033386;28;20548;-56
2023/09/15 00:05:02;;;;;;;4.22;2.65;;;14.80;99.90;;;;;;5033011;28;20092;-54
2023/09/15 00:07:29;;;;;;;5.20;2.63;;;14.80;99.90;;;;;;5032721;28;20082;-58
2023/09/15 00:09:58;;;;;;;4.55;2.55;;;14.70;99.90;;;;;;5031467;28;20045;-59
2023/09/15 00:12:26;;;;;;;5.13;2.67;;;14.70;99.90;;;;;;5032974;28;20052;-54
2023/09/15 00:14:52;;;;;;;3.50;2.47;;;14.70;99.90;;;;;;5033255;28;20045;-57
2023/09/15 00:17:19;;;;;;;5.45;2.85;;;14.70;99.90;;;;;;5033071;28;20552;-51
2023/09/15 00:19:46;;;;;;;5.40;2.65;;;14.70;99.90;;;;;;5032653;28;20129;-59
2023/09/15 00:22:13;;;;;;;5.50;2.67;;;14.70;99.90;;;;;;5032835;28;20485;-57
2023/09/15 00:24:40;;;;;;;5.22;2.58;;;14.70;99.90;;;;;;5031736;28;20099;-59
2023/09/15 00:27:09;;;;;;;4.30;2.45;;;14.70;99.90;;;;;;5032679;28;20500;-55
2023/09/15 00:29:35;;;;;;;4.30;2.80;;;14.60;99.90;;;;;;5033207;28;20488;-56
2023/09/15 00:32:02;;;;;;;5.32;2.65;;;14.60;99.90;;;;;;5031933;28;20059;-56
2023/09/15 00:34:29;;;;;;;3.55;2.60;;;14.60;99.90;;;;;;5035234;28;20041;-57
2023/09/15 00:36:56;;;;;;;7.68;3.08;;;14.60;99.90;;;;;;5036679;28;20049;-57
2023/09/15 00:39:24;;;;;;;3.70;2.67;;;14.50;99.90;;;;;;5036233;28;20503;-57
2023/09/15 00:41:51;;;;;;;5.85;2.63;;;14.50;99.90;;;;;;5035189;28;20120;-52
2023/09/15 00:44:18;;;;;;;6.55;3.08;;;14.50;99.90;;;;;;5035602;28;20041;-56
2023/09/15 00:46:46;;;;;;;5.57;2.92;;;14.50;99.90;;;;;;5035159;28;20507;-56
2023/09/15 00:49:13;;;;;;;5.78;2.92;;;14.50;99.90;;;;;;5035993;28;20406;-59
2023/09/15 00:51:40;;;;;;;3.30;2.42;;;14.50;99.90;;;;;;5035996;28;20523;-55
2023/09/15 00:54:08;;;;;;;4.07;2.85;;;14.50;99.90;;;;;;5035495;28;20547;-56
2023/09/15 00:56:35;;;;;;;4.63;2.53;;;14.50;99.90;;;;;;5034581;28;20077;-53
2023/09/15 00:59:02;;;;;;;3.72;2.60;;;14.40;99.90;;;;;;5034870;28;20057;-60
2023/09/15 01:01:30;;;;;;;4.50;2.75;;;14.40;99.90;;;;;;5035974;28;20065;-58
2023/09/15 01:03:57;;;;;;;5.70;2.83;;;14.40;99.90;;;;;;5036250;28;20049;-54
2023/09/15 01:06:25;;;;;;;6.03;3.20;;;14.40;99.90;;;;;;5035328;28;20033;-55
2023/09/15 01:08:51;;;;;;;5.35;3.03;;;14.30;99.90;;;;;;5027875;28;20041;-57
2023/09/15 01:11:18;;;;;;;4.43;2.90;;;14.30;99.90;;;;;;5035243;28;20044;-53
2023/09/15 01:13:45;;;;;;;6.90;3.35;;;14.30;99.90;;;;;;5035911;28;20049;-55
2023/09/15 01:16:12;;;;;;;4.15;2.75;;;14.30;99.90;;;;;;5035171;28;20065;-57
2023/09/15 01:18:39;;;;;;;4.32;2.58;;;14.20;99.90;;;;;;5034860;28;20060;-54
2023/09/15 01:21:06;;;;;;;5.85;2.58;;;14.30;99.90;;;;;;5034567;28;20103;-55
2023/09/15 01:23:32;;;;;;;5.30;2.92;;;14.30;99.90;;;;;;5034516;28;20046;-58
2023/09/15 01:25:59;;;;;;;3.78;2.40;;;14.20;99.90;;;;;;5034556;28;20099;-59
2023/09/15 01:28:26;;;;;;;3.97;2.75;;;14.20;99.90;;;;;;5033994;28;20164;-57
2023/09/15 01:30:54;;;;;;;4.63;2.80;;;14.20;99.90;;;;;;5035216;28;20049;-58
2023/09/15 01:33:21;;;;;;;3.53;2.83;;;14.10;99.90;;;;;;5035389;28;20543;-57
2023/09/15 01:35:48;;;;;;;4.18;3.10;;;14.10;99.90;;;;;;5035277;28;20046;-57
2023/09/15 01:38:15;;;;;;;4.53;2.60;;;14.10;99.90;;;;;;5034010;28;20056;-59
2023/09/15 01:40:42;;;;;;;5.97;3.03;;;14.00;99.90;;;;;;5034359;28;20037;-57
2023/09/15 01:43:09;;;;;;;4.97;2.88;;;14.00;99.90;;;;;;5034242;28;20045;-57
2023/09/15 01:45:36;;;;;;;5.97;3.38;;;14.00;99.90;;;;;;5035300;28;20037;-58
2023/09/15 01:48:03;;;;;;;5.90;3.60;;;14.00;99.90;;;;;;5035117;28;20041;-55
2023/09/15 01:50:30;;;;;;;5.80;3.28;;;14.00;99.90;;;;;;5033825;28;20053;-57
2023/09/15 01:52:59;;;;;;;5.57;4.07;;;14.00;99.90;;;;;;5033433;28;20121;-58
2023/09/15 01:55:26;;;;;;;6.20;3.67;;;14.00;99.90;;;;;;5034417;28;20096;-54
2023/09/15 01:57:53;;;;;;;5.40;3.85;;;14.00;99.90;;;;;;5034948;28;20048;-57
2023/09/15 02:00:20;;;;;;;5.20;3.83;;;13.90;99.90;;;;;;5033497;28;20053;-55
2023/09/15 02:02:47;;;;;;;6.15;3.88;;;13.90;99.90;;;;;;5034715;28;20046;-56
2023/09/15 02:05:14;;;;;;;5.22;3.83;;;13.90;99.90;;;;;;5033241;28;20111;-58
2023/09/15 02:07:41;;;;;;;5.13;3.70;;;13.90;99.90;;;;;;5034190;28;20108;-51
2023/09/15 02:10:08;;;;;;;6.90;4.10;;;13.90;99.90;;;;;;5033940;28;20052;-57
2023/09/15 02:12:34;;;;;;;5.78;3.65;;;13.90;99.90;;;;;;5034501;28;20108;-57
2023/09/15 02:15:04;;;;;;;5.63;4.00;;;13.90;99.90;;;;;;5032757;28;20128;-55
2023/09/15 02:17:31;;;;;;;5.20;3.47;;;13.90;99.90;;;;;;5034442;28;20038;-58
2023/09/15 02:19:57;;;;;;;5.72;3.85;;;13.80;99.90;;;;;;5034601;28;20041;-59
2023/09/15 02:22:24;;;;;;;7.20;4.25;;;13.90;99.90;;;;;;5034566;28;20033;-55
2023/09/15 02:24:51;;;;;;;4.85;3.63;;;13.80;99.90;;;;;;5033708;28;20129;-56
2023/09/15 02:27:18;;;;;;;4.90;3.97;;;13.80;99.90;;;;;;5032400;28;20369;-56
2023/09/15 02:29:45;;;;;;;7.13;4.47;;;13.80;99.90;;;;;;5034799;28;20444;-56
2023/09/15 02:32:11;;;;;;;6.32;4.65;;;13.70;99.90;;;;;;5034375;28;20046;-54
2023/09/15 02:34:39;;;;;;;5.90;4.22;;;13.70;99.90;;;;;;5033297;28;20045;-56
2023/09/15 02:37:07;;;;;;;7.57;5.15;;;13.70;99.90;;;;;;5032630;28;20052;-59
2023/09/15 02:39:35;;;;;;;5.75;5.18;;;13.70;99.90;;;;;;5030782;28;20057;-56
2023/09/15 02:42:03;;;;;;;9.13;6.78;;;13.70;99.90;;;;;;5032836;28;20042;-56
2023/09/15 02:44:29;;;;;;;10.48;7.72;;;13.70;99.90;;;;;;5032850;28;20136;-54
2023/09/15 02:46:56;;;;;;;8.38;6.82;;;13.80;99.90;;;;;;5033967;28;20052;-54
2023/09/15 02:49:24;;;;;;;9.52;6.32;;;13.80;99.90;;;;;;5031990;28;20083;-58
2023/09/15 02:51:51;;;;;;;6.85;5.20;;;13.80;99.90;;;;;;5033912;28;20382;-54
2023/09/15 02:54:17;;;;;;;5.38;4.18;;;13.70;99.90;;;;;;5032697;28;20041;-54
2023/09/15 02:56:44;;;;;;;5.78;4.70;;;13.70;99.90;;;;;;5032314;28;20088;-58
2023/09/15 02:59:11;;;;;;;5.03;4.53;;;13.70;99.90;;;;;;5033649;28;20049;-56
2023/09/15 03:01:38;;;;;;;5.28;4.38;;;13.70;99.90;;;;;;5031779;28;20161;-57
2023/09/15 03:04:05;;;;;;;5.20;4.32;;;13.60;99.90;;;;;;5032496;28;20045;-58
2023/09/15 03:06:32;;;;;;;7.15;4.82;;;13.60;99.90;;;;;;5032414;28;20042;-56
2023/09/15 03:09:00;;;;;;;4.97;4.30;;;13.60;99.90;;;;;;5033120;28;20041;-56
2023/09/15 03:11:29;;;;;;;7.53;5.18;;;13.60;99.90;;;;;;5033671;28;20034;-56
2023/09/15 03:14:00;;;;;;;6.10;5.03;;;13.60;99.90;;;;;;5031742;28;20045;-52
2023/09/15 03:16:26;;;;;;;7.47;5.10;;;13.60;99.90;;;;;;5033730;28;20123;-57
2023/09/15 03:18:54;;;;;;;6.43;5.25;;;13.60;99.90;;;;;;5032038;28;20042;-60
2023/09/15 03:21:20;;;;;;;5.68;4.88;;;13.50;99.90;;;;;;5032320;28;20491;-56
2023/09/15 03:23:47;;;;;;;7.00;5.05;;;13.50;99.90;;;;;;5031644;28;20048;-60
2023/09/15 03:26:14;;;;;;;7.18;4.55;;;13.50;99.90;;;;;;5032074;28;20053;-57
2023/09/15 03:28:46;;;;;;;6.00;4.63;;;13.50;99.90;;;;;;5032243;28;20049;-56
2023/09/15 03:31:13;;;;;;;5.35;4.13;;;13.40;99.90;;;;;;5033733;28;20069;-59
2023/09/15 03:33:40;;;;;;;8.00;4.00;;;13.40;99.90;;;;;;5031970;28;20041;-57
2023/09/15 03:36:10;;;;;;;5.43;4.60;;;13.40;99.90;;;;;;5031570;28;20057;-57
2023/09/15 03:38:37;;;;;;;6.35;4.80;;;13.40;99.90;;;;;;5031765;28;20059;-59
2023/09/15 03:41:04;;;;;;;5.65;4.05;;;13.30;99.90;;;;;;5031944;28;20232;-49
2023/09/15 03:43:32;;;;;;;5.15;4.28;;;13.40;99.90;;;;;;5015782;28;20049;-58
2023/09/15 03:45:59;;;;;;;5.72;3.92;;;13.30;99.90;;;;;;5033073;28;20049;-57
2023/09/15 03:48:26;;;;;;;7.18;4.00;;;13.30;99.90;;;;;;5032483;28;20049;-52
2023/09/15 03:50:55;;;;;;;6.28;3.88;;;13.30;99.90;;;;;;5031833;28;20149;-56
2023/09/15 03:53:22;;;;;;;6.28;4.55;;;13.30;99.90;;;;;;5032042;28;20420;-59
2023/09/15 03:55:49;;;;;;;5.43;3.72;;;13.20;99.90;;;;;;5032084;28;20054;-57
2023/09/15 03:58:16;;;;;;;5.43;3.85;;;13.20;99.90;;;;;;5032763;28;20546;-54
2023/09/15 04:00:44;;;;;;;5.53;4.55;;;13.10;99.90;;;;;;5031532;28;20057;-55
2023/09/15 04:03:11;;;;;;;4.80;4.30;;;13.10;99.90;;;;;;5033314;28;20034;-55
2023/09/15 04:05:38;;;;;;;5.53;4.93;;;13.10;99.90;;;;;;5033347;28;20045;-52
2023/09/15 04:08:05;;;;;;;5.35;4.63;;;13.10;99.90;;;;;;5031215;28;20052;-60
2023/09/15 04:10:32;;;;;;;6.63;4.90;;;13.10;99.90;;;;;;5036232;28;20220;-56
2023/09/15 04:12:59;;;;;;;5.63;4.88;;;13.10;99.90;;;;;;5036943;28;20041;-58
2023/09/15 04:15:26;;;;;;;5.70;4.90;;;13.10;99.90;;;;;;5034945;28;20071;-60
2023/09/15 04:17:54;;;;;;;6.53;5.05;;;13.10;99.90;;;;;;5036989;28;20044;-58
2023/09/15 04:20:22;;;;;;;7.07;5.53;;;13.10;99.90;;;;;;5035715;28;20056;-56
2023/09/15 04:23:11;;;;;;;5.35;4.72;;;13.10;99.90;;;;;;5035134;28;20045;-56
2023/09/15 04:25:38;;;;;;;5.32;4.53;;;13.00;99.90;;;;;;5035447;28;20519;-55
2023/09/15 04:28:05;;;;;;;5.75;4.68;;;13.00;99.90;;;;;;5035507;28;20050;-55
2023/09/15 04:30:32;;;;;;;7.60;5.13;;;13.00;99.90;;;;;;5036582;28;20073;-53
2023/09/15 04:32:59;;;;;;;6.57;4.80;;;13.00;99.90;;;;;;5035261;28;20045;-52
2023/09/15 04:35:27;;;;;;;6.05;4.90;;;13.10;99.90;;;;;;5034620;28;20519;-55
2023/09/15 04:37:54;;;;;;;6.63;4.53;;;13.00;99.90;;;;;;5035401;28;20079;-56
2023/09/15 04:40:22;;;;;;;5.63;4.40;;;13.00;99.90;;;;;;5035355;28;20477;-57
2023/09/15 04:42:49;;;;;;;5.60;4.47;;;13.00;99.90;;;;;;5035119;28;20057;-55
2023/09/15 04:45:16;;;;;;;7.32;5.07;;;13.00;99.90;;;;;;5035093;28;20046;-54
2023/09/15 04:47:43;;;;;;;6.68;4.97;;;12.90;99.90;;;;;;5034373;28;20045;-54
2023/09/15 04:50:15;;;;;;;5.72;4.75;;;13.00;99.90;;;;;;5035128;28;20076;-55
2023/09/15 04:52:42;;;;;;;6.40;5.25;;;12.90;99.90;;;;;;5035025;28;20477;-56
2023/09/15 04:55:09;;;;;;;8.60;6.22;;;12.90;99.90;;;;;;5034911;28;20469;-58
2023/09/15 04:57:36;;;;;;;8.13;4.95;;;12.90;99.90;;;;;;5034739;28;20053;-51
2023/09/15 05:00:12;;;;;;;5.90;4.25;;;12.90;99.90;;;;;;5034642;28;20080;-54
2023/09/15 05:02:45;;;;;;;7.32;4.40;;;12.90;99.90;;;;;;5035012;28;20050;-56
2023/09/15 05:05:15;;;;;;;;;;;12.80;99.90;;;;;;5036457;28;20052;-59
2023/09/15 05:07:42;;;;;;;5.50;3.92;;;12.80;99.90;;;;;;5034417;28;20024;-60
2023/09/15 05:10:09;;;;;;;5.85;4.38;;;12.80;99.90;;;;;;5022802;28;20493;-57
2023/09/15 05:12:36;;;;;;;5.53;4.70;;;12.80;99.90;;;;;;5015080;28;20042;-59
2023/09/15 05:15:03;;;;;;;4.50;4.07;;;12.80;99.90;;;;;;5033691;28;20045;-58
2023/09/15 05:17:32;;;;;;;6.45;4.35;;;12.80;99.90;;;;;;5034287;28;20049;-56
2023/09/15 05:19:59;;;;;;;5.93;4.40;;;12.80;99.90;;;;;;5035227;28;20076;-58
2023/09/15 05:22:26;;;;;;;5.45;3.97;;;12.80;99.90;;;;;;5033750;28;20103;-58
2023/09/15 05:24:55;;;;;;;5.40;4.55;;;12.80;99.90;;;;;;5034479;28;20056;-53
2023/09/15 05:27:22;;;;;;;7.00;4.68;;;12.80;99.90;;;;;;5033778;28;20081;-54
2023/09/15 05:29:50;;;;;;;7.28;3.97;;;12.80;99.90;;;;;;5033985;28;20068;-58
2023/09/15 05:32:17;;;;;;;6.30;4.20;;;12.80;99.90;;;;;;5034231;28;20041;-54
2023/09/15 05:34:44;;;;;;;5.60;4.38;;;12.80;99.90;;;;;;5034041;28;20076;-54
2023/09/15 05:37:12;;;;;;;6.35;4.22;;;12.70;99.90;;;;;;5035196;28;20046;-54
2023/09/15 05:39:39;;;;;;;6.32;4.13;;;12.80;99.90;;;;;;5035074;28;20048;-59
2023/09/15 05:42:06;;;;;;;5.60;4.35;;;12.80;99.90;;;;;;5034106;28;20041;-59
2023/09/15 05:44:33;;;;;;;5.03;4.45;;;12.80;99.90;;;;;;5035249;28;20060;-54
2023/09/15 05:47:00;;;;;;;7.45;4.60;;;12.80;99.90;;;;;;5035494;28;20041;-56
2023/09/15 05:49:27;;;;;;;5.00;4.50;;;12.80;99.90;;;;;;5033743;28;20037;-53
2023/09/15 05:51:56;;;;;;;6.40;4.82;;;12.80;99.90;;;;;;5035115;28;20120;-56
2023/09/15 05:54:26;;;;;;;9.25;4.95;;;12.80;99.90;;;;;;5035081;28;20382;-52
2023/09/15 05:56:53;;;;;;;6.30;4.90;;;12.80;99.90;;;;;;5035150;28;20084;-56
2023/09/15 05:59:20;;;;;;;7.22;5.38;;;12.80;99.90;;;;;;5035173;28;20045;-54
2023/09/15 06:01:47;;;;;;;9.57;5.50;;;12.80;99.90;;;;;;5034801;28;20053;-51
2023/09/15 06:04:15;;;;;;;9.38;5.82;;;12.80;99.90;;;;;;5034573;28;20045;-52
2023/09/15 06:06:42;;;;;;;8.50;5.55;;;12.80;99.90;;;;;;5035042;28;20076;-50
2023/09/15 06:09:09;;;;;;;8.25;5.60;;;12.80;99.90;;;;;;5033908;28;20040;-57
2023/09/15 06:11:35;;;;;;;7.57;5.28;;;12.90;99.90;;;;;;5034598;28;20060;-55
2023/09/15 06:14:02;;;;;;;7.53;5.75;;;12.90;99.90;;;;;;5034564;28;20046;-57
2023/09/15 06:16:29;;;;;;;8.52;5.40;;;12.90;99.90;;;;;;5035001;28;20072;-57
2023/09/15 06:18:56;;;;;;;6.35;5.07;;;12.90;99.90;;;;;;5034656;28;20041;-56
2023/09/15 06:21:23;;;;;;;10.43;6.45;;;13.00;99.90;;;;;;5034193;28;20041;-56
2023/09/15 06:23:50;;;;;;;7.95;5.35;;;13.00;99.90;;;;;;5032065;28;20053;-56
2023/09/15 06:26:17;;;;;;;8.48;5.63;;;13.00;99.90;;;;;;5027817;28;20053;-56
2023/09/15 06:28:44;;;;;;;8.02;5.53;;;13.10;99.90;;;;;;5033932;28;20049;-56
2023/09/15 06:31:11;;;;;;;10.90;4.85;;;13.10;99.90;;;;;;5033623;28;20128;-55
2023/09/15 06:33:38;;;;;;;7.95;4.85;;;13.10;99.90;;;;;;5034235;28;20041;-56
2023/09/15 06:36:05;;;;;;;10.23;5.50;;;13.10;99.90;;;;;;5033849;28;20045;-59
2023/09/15 06:38:31;;;;;;;8.75;5.22;;;13.20;99.90;;;;;;5034457;28;20049;-56
2023/09/15 06:40:58;;;;;;;7.05;5.40;;;13.20;99.90;;;;;;5034006;28;20045;-61
2023/09/15 06:43:28;;;;;;;7.63;5.15;;;13.20;99.90;;;;;;5033707;28;20033;-54
2023/09/15 06:45:55;;;;;;;9.18;5.75;;;13.30;99.90;;;;;;5033939;28;20125;-54
2023/09/15 06:48:22;;;;;;;9.88;5.30;;;13.30;99.90;;;;;;5033324;28;20451;-57
2023/09/15 06:50:48;;;;;;;6.15;5.22;;;13.30;99.90;;;;;;5033673;28;20033;-53
2023/09/15 06:53:15;;;;;;;6.72;5.07;;;13.40;99.90;;;;;;5032244;28;20045;-58
2023/09/15 06:55:42;;;;;;;8.13;5.43;;;13.50;99.90;;;;;;5033342;28;20049;-59
2023/09/15 06:58:09;;;;;;;9.55;5.00;;;13.50;99.90;;;;;;5033265;28;20480;-60
2023/09/15 07:00:38;;;;;;;9.25;5.03;;;13.60;99.90;;;;;;5033447;28;20416;-58
2023/09/15 07:03:04;;;;;;;7.28;4.75;;;13.80;99.90;;;;;;5033398;28;20074;-56
2023/09/15 07:05:31;;;;;;;9.02;4.65;;;13.90;99.90;;;;;;5033188;28;20091;-59
2023/09/15 07:07:58;;;;;;;7.68;4.75;;;14.10;99.90;;;;;;5033360;28;20556;-57
2023/09/15 07:10:25;;;;;;;8.20;4.30;;;14.10;99.90;;;;;;5032522;28;20492;-59
2023/09/15 07:12:52;;;;;;;9.00;4.63;;;14.20;99.90;;;;;;5033370;28;20037;-56
2023/09/15 07:15:18;;;;;;;13.18;3.90;;;14.30;99.90;;;;;;5033074;28;20076;-58
2023/09/15 07:17:45;;;;;;;6.03;3.75;;;14.40;99.90;;;;;;5031825;28;20049;-61
2023/09/15 07:20:12;;;;;;;19.63;12.98;;;14.50;99.90;;;;;;5031239;28;20477;-58
2023/09/15 07:22:40;;;;;;;28.92;14.20;;;14.50;99.90;;;;;;5032143;28;20036;-56
2023/09/15 07:25:07;;;;;;;16.10;10.73;;;14.50;99.90;;;;;;5032769;28;20034;-54
2023/09/15 07:27:34;;;;;;;11.73;8.95;;;14.60;99.90;;;;;;5031815;28;20057;-58
2023/09/15 07:30:01;;;;;;;26.05;8.32;;;14.60;99.90;;;;;;5033322;28;20124;-56
2023/09/15 07:32:28;;;;;;;15.82;7.95;;;14.70;99.90;;;;;;5033170;28;20103;-55
2023/09/15 07:34:55;;;;;;;8.40;5.25;;;14.70;99.90;;;;;;5033477;28;20399;-58
2023/09/15 07:37:21;;;;;;;6.70;3.53;;;14.70;99.90;;;;;;5032655;28;20116;-56
2023/09/15 07:39:48;;;;;;;11.05;3.60;;;14.80;99.90;;;;;;5033077;28;20045;-56
2023/09/15 07:42:15;;;;;;;12.07;3.60;;;14.90;99.90;;;;;;5031353;28;20038;-57
2023/09/15 07:44:42;;;;;;;7.03;3.10;;;15.00;99.90;;;;;;5032927;28;20038;-60
2023/09/15 07:47:12;;;;;;;8.07;2.47;;;15.10;99.90;;;;;;5032817;28;20444;-58
2023/09/15 07:49:39;;;;;;;5.30;2.80;;;15.30;99.90;;;;;;5032758;28;20041;-55
2023/09/15 07:52:06;;;;;;;7.70;2.50;;;15.50;99.90;;;;;;5033326;28;20049;-59
2023/09/15 07:54:32;;;;;;;11.30;2.40;;;15.70;99.90;;;;;;5032843;28;20485;-58
2023/09/15 07:57:00;;;;;;;6.93;2.25;;;15.80;99.90;;;;;;5032735;28;20038;-58
2023/09/15 07:59:27;;;;;;;7.72;2.17;;;16.00;99.90;;;;;;5032528;28;20092;-56
2023/09/15 08:01:54;;;;;;;7.63;2.38;;;16.10;99.90;;;;;;5031839;28;20045;-58
2023/09/15 08:04:21;;;;;;;4.95;2.03;;;16.20;99.90;;;;;;5033107;28;20095;-56
2023/09/15 08:06:49;;;;;;;4.45;2.13;;;16.30;99.90;;;;;;5031967;28;20041;-60
2023/09/15 08:09:17;;;;;;;9.73;2.20;;;16.40;99.90;;;;;;5033263;28;20073;-58
2023/09/15 08:11:44;;;;;;;6.38;2.20;;;16.50;99.90;;;;;;5033408;28;20046;-60
2023/09/15 08:14:11;;;;;;;5.97;1.80;;;16.60;99.90;;;;;;5032781;28;20041;-57
2023/09/15 08:16:37;;;;;;;5.18;2.00;;;16.70;99.90;;;;;;5032074;28;20735;-57
2023/09/15 08:19:04;;;;;;;7.30;2.10;;;16.80;99.90;;;;;;5031232;28;20073;-58
2023/09/15 08:21:31;;;;;;;6.05;2.00;;;16.90;99.90;;;;;;5031254;28;20432;-57
2023/09/15 08:23:58;;;;;;;15.75;2.45;;;17.10;99.90;;;;;;5030713;28;20133;-55
2023/09/15 08:26:25;;;;;;;6.63;2.00;;;17.20;99.90;;;;;;5030605;28;20034;-53
2023/09/15 08:29:08;;;;;;;6.22;1.80;;;17.20;99.90;;;;;;5031394;28;20049;-54
2023/09/15 08:31:36;;;;;;;7.05;2.45;;;17.30;99.90;;;;;;5030649;28;20045;-59
2023/09/15 08:34:03;;;;;;;7.05;2.30;;;17.40;99.90;;;;;;5030871;28;20060;-55
2023/09/15 08:36:30;;;;;;;4.53;2.08;;;17.50;99.90;;;;;;5032477;28;20042;-57
2023/09/15 08:38:57;;;;;;;6.03;2.00;;;17.60;99.90;;;;;;5032300;28;20493;-54
2023/09/15 08:41:24;;;;;;;10.60;2.20;;;17.60;99.90;;;;;;5032162;28;20045;-54
2023/09/15 08:43:52;;;;;;;7.40;2.15;;;17.70;99.90;;;;;;5032500;28;20056;-58
2023/09/15 08:46:19;;;;;;;5.53;2.50;;;17.80;99.90;;;;;;5032417;28;20053;-59
2023/09/15 08:48:46;;;;;;;4.60;2.42;;;17.90;99.90;;;;;;5032587;28;20473;-54
2023/09/15 08:51:14;;;;;;;8.85;2.58;;;18.10;99.90;;;;;;5032694;28;20572;-58
2023/09/15 08:53:40;;;;;;;10.40;2.63;;;18.20;99.90;;;;;;5032742;28;20365;-57
2023/09/15 08:56:07;;;;;;;6.68;3.40;;;18.30;99.90;;;;;;5035865;28;20053;-56
2023/09/15 08:58:34;;;;;;;7.32;2.78;;;18.50;99.90;;;;;;5036175;28;20041;-52
2023/09/15 09:01:01;;;;;;;7.38;4.03;;;18.60;99.90;;;;;;5034456;28;20060;-60
2023/09/15 09:03:28;;;;;;;6.97;4.13;;;18.70;99.90;;;;;;5034584;28;20103;-59
2023/09/15 09:05:56;;;;;;;6.60;4.30;;;18.70;99.90;;;;;;5035789;28;20113;-59
2023/09/15 09:08:23;;;;;;;8.85;5.03;;;18.70;99.90;;;;;;5017770;28;20044;-59
2023/09/15 09:10:50;;;;;;;9.75;6.45;;;18.70;99.90;;;;;;5036016;28;20449;-60
2023/09/15 09:13:17;;;;;;;12.88;5.78;;;18.60;99.90;;;;;;5035443;28;20049;-48
2023/09/15 09:15:59;;;;;;;8.32;4.22;;;18.70;99.90;;;;;;5035843;28;20111;-61
2023/09/15 09:18:26;;;;;;;9.40;4.75;;;18.70;99.90;;;;;;5035365;28;20219;-55
2023/09/15 09:20:53;;;;;;;9.57;4.93;;;18.70;99.90;;;;;;5035397;28;20043;-56
2023/09/15 09:23:20;;;;;;;11.95;4.80;;;18.70;99.90;;;;;;5035194;28;20038;-56
2023/09/15 09:25:46;;;;;;;6.15;4.50;;;18.70;99.90;;;;;;5034258;28;20045;-57
2023/09/15 09:28:13;;;;;;;9.30;5.45;;;18.80;99.90;;;;;;5035381;28;20034;-57
2023/09/15 09:30:43;;;;;;;8.65;4.63;;;18.80;99.90;;;;;;5035472;28;20465;-55
2023/09/15 09:33:12;;;;;;;10.63;4.80;;;18.80;99.90;;;;;;5035188;28;20055;-58
2023/09/15 09:35:38;;;;;;;7.05;4.25;;;18.70;99.90;;;;;;5035402;28;20125;-57
2023/09/15 09:38:05;;;;;;;9.00;4.22;;;18.80;99.90;;;;;;5035495;28;20121;-58
2023/09/15 09:40:33;;;;;;;7.38;4.10;;;18.80;99.90;;;;;;5035514;28;20073;-56
2023/09/15 09:43:00;;;;;;;8.95;4.10;;;18.90;99.90;;;;;;5034551;28;20045;-53
2023/09/15 09:45:27;;;;;;;9.13;4.97;;;18.90;99.90;;;;;;5034169;28;20045;-55
2023/09/15 09:47:54;;;;;;;7.72;4.55;;;19.00;99.90;;;;;;5034913;28;20527;-58
2023/09/15 09:50:21;;;;;;;10.52;5.38;;;19.00;99.90;;;;;;5035058;28;20049;-55
2023/09/15 09:52:48;;;;;;;8.85;5.05;;;19.00;99.90;;;;;;5033800;28;20469;-56
2023/09/15 09:55:15;;;;;;;15.40;6.20;;;19.00;99.90;;;;;;5035124;28;20116;-59
2023/09/15 09:57:41;;;;;;;24.40;6.28;;;19.10;99.90;;;;;;5035210;28;20068;-55
2023/09/15 10:00:17;;;;;;;8.57;4.85;;;19.10;99.90;;;;;;5033541;28;20057;-57
2023/09/15 10:02:45;;;;;;;10.23;5.72;;;19.20;99.90;;;;;;5039369;28;20095;-56
2023/09/15 10:05:12;;;;;;;11.38;6.25;;;19.30;99.90;;;;;;5046334;28;20052;-57
2023/09/15 10:07:39;;;;;;;11.82;7.20;;;19.30;99.90;;;;;;5034695;28;20038;-57
2023/09/15 10:10:06;;;;;;;10.32;5.93;;;19.30;99.90;;;;;;5034877;28;20056;-54
2023/09/15 10:12:33;;;;;;;8.45;5.30;;;19.30;99.90;;;;;;5034783;28;20038;-57
2023/09/15 10:15:00;;;;;;;9.15;4.93;;;19.40;99.90;;;;;;5034416;28;20033;-56
2023/09/15 10:17:27;;;;;;;9.23;5.25;;;19.50;99.90;;;;;;5034382;28;20057;-55
2023/09/15 10:19:53;;;;;;;8.05;5.47;;;19.50;99.90;;;;;;5034411;28;20042;-55
2023/09/15 10:22:20;;;;;;;9.10;5.65;;;19.60;99.90;;;;;;5034127;28;20033;-58
2023/09/15 10:24:48;;;;;;;10.15;5.70;;;19.60;99.90;;;;;;5034318;28;20050;-58
2023/09/15 10:27:14;;;;;;;6.85;4.70;;;19.70;99.90;;;;;;5034787;28;20133;-56
2023/09/15 10:29:41;;;;;;;9.88;5.35;;;19.70;99.90;;;;;;5034133;28;20429;-57
2023/09/15 10:32:08;;;;;;;8.05;4.80;;;19.80;99.90;;;;;;5034890;28;20407;-55
2023/09/15 10:34:35;;;;;;;10.10;5.15;;;19.80;99.90;;;;;;5034265;28;20052;-57
2023/09/15 10:37:02;;;;;;;9.55;5.35;;;19.90;99.90;;;;;;5034686;28;20468;-60
2023/09/15 10:39:28;;;;;;;8.82;6.20;;;20.00;99.90;;;;;;5034154;28;20049;-58
2023/09/15 10:41:55;;;;;;;9.48;5.57;;;20.00;99.90;;;;;;5033823;28;20080;-61
2023/09/15 10:44:22;;;;;;;9.25;5.30;;;20.10;99.90;;;;;;5033688;28;20055;-57
2023/09/15 10:46:49;;;;;;;8.85;5.35;;;20.20;99.90;;;;;;5033918;28;20037;-59
2023/09/15 10:49:16;;;;;;;8.65;5.65;;;20.30;99.90;;;;;;5032863;28;20041;-61
2023/09/15 10:51:42;;;;;;;23.08;7.13;;;20.50;99.90;;;;;;5033623;28;20045;-57
2023/09/15 10:54:09;;;;;;;9.45;6.22;;;20.50;99.90;;;;;;5033502;28;20045;-58
2023/09/15 10:56:36;;;;;;;11.88;6.03;;;20.50;99.90;;;;;;5032522;28;20049;-56
2023/09/15 10:59:03;;;;;;;18.17;10.98;;;20.60;99.90;;;;;;5032515;28;20086;-59
2023/09/15 11:01:30;;;;;;;14.40;6.70;;;20.70;99.90;;;;;;5033518;28;20053;-56
2023/09/15 11:03:57;;;;;;;9.93;6.38;;;20.70;99.90;;;;;;5033442;28;20115;-56
2023/09/15 11:06:28;;;;;;;10.73;6.35;;;20.70;99.90;;;;;;5034113;28;20048;-58
2023/09/15 11:08:56;;;;;;;10.45;6.07;;;20.70;99.90;;;;;;5034201;28;20096;-57
2023/09/15 11:11:23;;;;;;;9.70;5.50;;;20.70;99.90;;;;;;5032358;28;20037;-56
2023/09/15 11:13:50;;;;;;;9.88;6.15;;;20.80;99.90;;;;;;5033479;28;20076;-51
2023/09/15 11:16:17;;;;;;;13.02;5.50;;;20.80;99.90;;;;;;5033332;28;20041;-59
2023/09/15 11:18:44;;;;;;;11.60;4.90;;;20.90;99.90;;;;;;5032676;28;20125;-58
2023/09/15 11:21:12;;;;;;;11.95;5.75;;;21.00;99.90;;;;;;5033942;28;20053;-58
2023/09/15 11:23:40;;;;;;;6.88;3.78;;;21.10;99.90;;;;;;5033496;28;20045;-57
2023/09/15 11:26:07;;;;;;;6.68;2.90;;;21.20;99.90;;;;;;5033504;28;20465;-60
2023/09/15 11:28:51;;;;;;;5.32;2.65;;;21.30;99.90;;;;;;5032617;28;20034;-52
2023/09/15 11:31:18;;;;;;;4.65;2.80;;;21.50;99.90;;;;;;5033352;28;20479;-57
2023/09/15 11:33:45;;;;;;;6.57;2.92;;;21.60;99.90;;;;;;5033645;28;20050;-59
2023/09/15 11:36:13;;;;;;;5.60;2.75;;;21.60;99.90;;;;;;5033431;28;20049;-58
2023/09/15 11:38:43;;;;;;;5.97;2.60;;;21.60;99.90;;;;;;5031976;28;20544;-56
2023/09/15 11:41:12;;;;;;;6.35;2.90;;;21.70;99.90;;;;;;5033207;28;20129;-53
2023/09/15 11:43:39;;;;;;;6.80;2.42;;;21.80;99.90;;;;;;5033134;28;20472;-58
2023/09/15 11:46:07;;;;;;;6.97;2.58;;;21.90;99.50;;;;;;5033193;28;20046;-53
2023/09/15 11:48:38;;;;;;;5.03;2.42;;;22.00;99.40;;;;;;5033091;28;20116;-56
2023/09/15 11:51:06;;;;;;;5.18;2.55;;;22.10;98.90;;;;;;5033287;28;20092;-59
2023/09/15 11:53:36;;;;;;;5.35;2.40;;;22.20;99.10;;;;;;5033191;28;20045;-57
2023/09/15 11:56:03;;;;;;;4.97;2.42;;;22.30;98.80;;;;;;5033253;28;20045;-53
2023/09/15 11:58:30;;;;;;;4.75;2.13;;;22.40;98.60;;;;;;5033180;28;20045;-58
2023/09/15 12:00:57;;;;;;;5.72;2.65;;;22.60;98.50;;;;;;5032730;28;20049;-60
2023/09/15 12:03:24;;;;;;;4.30;2.53;;;22.60;98.10;;;;;;5031442;28;20052;-60
2023/09/15 12:05:52;;;;;;;4.75;2.58;;;22.60;98.40;;;;;;5033318;28;20377;-59
2023/09/15 12:08:18;;;;;;;5.03;2.10;;;22.70;98.40;;;;;;5031122;28;20061;-55
2023/09/15 12:10:46;;;;;;;4.05;2.38;;;22.80;97.70;;;;;;5033045;28;20037;-54
2023/09/15 12:13:27;;;;;;;5.93;2.40;;;23.00;97.80;;;;;;5032665;28;20466;-58
2023/09/15 12:15:53;;;;;;;6.18;2.60;;;23.10;96.80;;;;;;5031910;28;20465;-58
2023/09/15 12:18:20;;;;;;;3.85;2.30;;;23.30;96.90;;;;;;5032774;28;20038;-57
2023/09/15 12:20:48;;;;;;;3.65;2.13;;;23.40;96.90;;;;;;5032881;28;20056;-59
2023/09/15 12:23:15;;;;;;;6.22;3.13;;;23.50;96.40;;;;;;5032678;28;20040;-58
2023/09/15 12:25:42;;;;;;;3.65;1.90;;;23.60;96.30;;;;;;5032596;28;20117;-57
2023/09/15 12:28:10;;;;;;;5.97;2.20;;;23.70;96.10;;;;;;5032496;28;20068;-59
2023/09/15 12:30:43;;;;;;;6.72;2.38;;;23.70;96.00;;;;;;5035665;28;20044;-60
2023/09/15 12:33:19;;;;;;;4.88;2.58;;;23.80;96.10;;;;;;5037197;28;20073;-57
2023/09/15 12:35:52;;;;;;;4.30;1.90;;;23.80;96.10;;;;;;5036307;28;20042;-54
2023/09/15 12:38:18;;;;;;;3.88;2.20;;;23.80;96.30;;;;;;5036380;28;20037;-58
2023/09/15 12:40:45;;;;;;;5.72;2.58;;;23.80;96.10;;;;;;5036573;28;20091;-60
2023/09/15 12:43:13;;;;;;;4.40;2.60;;;23.80;96.10;;;;;;5036278;28;20045;-54
2023/09/15 12:45:39;;;;;;;5.32;2.25;;;23.90;96.20;;;;;;5036597;28;20055;-57